sensor_id;sensor_type;location;lat;lon;timestamp;temperature;humidity
11284;DHT22;5698;47.332;11.180;2022-09-27T00:00:11;5.70;99.90
11284;DHT22;5698;47.332;11.180;2022-09-27T00:02:38;5.70;99.90
11284;DHT22;5698;47.332;11.180;2022-09-27T00:05:05;5.70;99.90
11284;DHT22;5698;47.332;11.180;2022-09-27T00:07:33;5.70;99.90
11284;DHT22;5698;47.332;11.180;2022-09-27T00:10:00;5.80;99.90
11284;DHT22;5698;47.332;11.180;2022-09-27T00:12:28;5.80;99.90
11284;DHT22;5698;47.332;11.180;2022-09-27T00:14:55;5.80;99.90
11284;DHT22;5698;47.332;11.180;2022-09-27T00:17:22;5.80;99.90
11284;DHT22;5698;47.332;11.180;2022-09-27T00:19:49;5.80;99.90
11284;DHT22;5698;47.332;11.180;2022-09-27T00:22:17;5.80;99.90
11284;DHT22;5698;47.332;11.180;2022-09-27T00:24:44;5.90;99.90
11284;DHT22;5698;47.332;11.180;2022-09-27T00:27:11;5.90;99.90
11284;DHT22;5698;47.332;11.180;2022-09-27T00:29:39;5.90;99.90
11284;DHT22;5698;47.332;11.180;2022-09-27T00:32:06;5.90;99.90
11284;DHT22;5698;47.332;11.180;2022-09-27T00:34:33;6.00;99.90
11284;DHT22;5698;47.332;11.180;2022-09-27T00:37:01;5.90;99.90
11284;DHT22;5698;47.332;11.180;2022-09-27T00:39:28;5.90;99.90
11284;DHT22;5698;47.332;11.180;2022-09-27T00:41:55;6.00;99.90
11284;DHT22;5698;47.332;11.180;2022-09-27T00:47:41;6.00;99.90
11284;DHT22;5698;47.332;11.180;2022-09-27T00:50:20;6.00;99.90
11284;DHT22;5698;47.332;11.180;2022-09-27T00:52:54;5.90;99.90
11284;DHT22;5698;47.332;11.180;2022-09-27T00:55:26;5.90;99.90
11284;DHT22;5698;47.332;11.180;2022-09-27T00:57:55;5.90;99.90
11284;DHT22;5698;47.332;11.180;2022-09-27T01:00:23;5.90;99.90
11284;DHT22;5698;47.332;11.180;2022-09-27T01:02:52;5.90;99.90
11284;DHT22;5698;47.332;11.180;2022-09-27T01:05:23;5.90;99.90
11284;DHT22;5698;47.332;11.180;2022-09-27T01:07:51;5.90;99.90
11284;DHT22;5698;47.332;11.180;2022-09-27T01:10:21;6.00;99.90
11284;DHT22;5698;47.332;11.180;2022-09-27T01:12:57;6.00;99.90
11284;DHT22;5698;47.332;11.180;2022-09-27T01:15:34;6.00;99.90
11284;DHT22;5698;47.332;11.180;2022-09-27T01:18:16;6.00;99.90
11284;DHT22;5698;47.332;11.180;2022-09-27T01:21:05;5.90;99.90
11284;DHT22;5698;47.332;11.180;2022-09-27T01:23:56;5.80;99.90
11284;DHT22;5698;47.332;11.180;2022-09-27T01:26:44;5.80;99.90
11284;DHT22;5698;47.332;11.180;2022-09-27T01:29:17;5.80;99.90
11284;DHT22;5698;47.332;11.180;2022-09-27T01:31:51;5.80;99.90
11284;DHT22;5698;47.332;11.180;2022-09-27T01:34:25;5.70;99.90
11284;DHT22;5698;47.332;11.180;2022-09-27T01:36:56;5.80;99.90
11284;DHT22;5698;47.332;11.180;2022-09-27T01:39:33;5.80;99.90
11284;DHT22;5698;47.332;11.180;2022-09-27T01:42:09;5.90;99.90
11284;DHT22;5698;47.332;11.180;2022-09-27T01:44:42;5.90;99.90
11284;DHT22;5698;47.332;11.180;2022-09-27T01:47:16;6.00;99.90
11284;DHT22;5698;47.332;11.180;2022-09-27T01:50:00;6.00;99.90
11284;DHT22;5698;47.332;11.180;2022-09-27T01:52:33;6.00;99.90
11284;DHT22;5698;47.332;11.180;2022-09-27T01:55:04;6.00;99.90
11284;DHT22;5698;47.332;11.180;2022-09-27T01:57:36;6.00;99.90
11284;DHT22;5698;47.332;11.180;2022-09-27T02:00:06;6.00;99.90
11284;DHT22;5698;47.332;11.180;2022-09-27T02:02:38;6.00;99.90
11284;DHT22;5698;47.332;11.180;2022-09-27T02:05:09;6.10;99.90
11284;DHT22;5698;47.332;11.180;2022-09-27T02:07:41;6.10;99.90
11284;DHT22;5698;47.332;11.180;2022-09-27T02:10:12;6.10;99.90
11284;DHT22;5698;47.332;11.180;2022-09-27T02:12:46;6.20;99.90
11284;DHT22;5698;47.332;11.180;2022-09-27T02:15:16;6.20;99.90
11284;DHT22;5698;47.332;11.180;2022-09-27T02:17:49;6.20;99.90
11284;DHT22;5698;47.332;11.180;2022-09-27T02:20:26;6.30;99.90
11284;DHT22;5698;47.332;11.180;2022-09-27T02:23:05;6.30;99.90
11284;DHT22;5698;47.332;11.180;2022-09-27T02:25:41;6.30;99.90
11284;DHT22;5698;47.332;11.180;2022-09-27T02:28:16;6.30;99.90
11284;DHT22;5698;47.332;11.180;2022-09-27T02:30:49;6.30;99.90
11284;DHT22;5698;47.332;11.180;2022-09-27T02:33:19;6.30;99.90
11284;DHT22;5698;47.332;11.180;2022-09-27T02:35:48;6.30;99.90
11284;DHT22;5698;47.332;11.180;2022-09-27T02:38:16;6.20;99.90
11284;DHT22;5698;47.332;11.180;2022-09-27T02:40:45;6.30;99.90
11284;DHT22;5698;47.332;11.180;2022-09-27T02:43:14;6.30;99.90
11284;DHT22;5698;47.332;11.180;2022-09-27T02:45:52;6.30;99.90
11284;DHT22;5698;47.332;11.180;2022-09-27T02:48:29;6.40;99.90
11284;DHT22;5698;47.332;11.180;2022-09-27T02:51:16;6.40;99.90
11284;DHT22;5698;47.332;11.180;2022-09-27T02:53:57;6.40;99.90
11284;DHT22;5698;47.332;11.180;2022-09-27T02:56:34;6.40;99.90
11284;DHT22;5698;47.332;11.180;2022-09-27T02:59:08;6.40;99.90
11284;DHT22;5698;47.332;11.180;2022-09-27T03:01:42;6.30;99.90
11284;DHT22;5698;47.332;11.180;2022-09-27T03:04:17;6.30;99.90
11284;DHT22;5698;47.332;11.180;2022-09-27T03:06:48;6.30;99.90
11284;DHT22;5698;47.332;11.180;2022-09-27T03:09:18;6.30;99.90
11284;DHT22;5698;47.332;11.180;2022-09-27T03:11:46;6.30;99.90
11284;DHT22;5698;47.332;11.180;2022-09-27T03:14:13;6.30;99.90
11284;DHT22;5698;47.332;11.180;2022-09-27T03:16:41;6.30;99.90
11284;DHT22;5698;47.332;11.180;2022-09-27T03:19:08;6.40;99.90
11284;DHT22;5698;47.332;11.180;2022-09-27T03:21:37;6.40;99.90
11284;DHT22;5698;47.332;11.180;2022-09-27T03:24:04;6.40;99.90
11284;DHT22;5698;47.332;11.180;2022-09-27T03:26:32;6.40;99.90
11284;DHT22;5698;47.332;11.180;2022-09-27T03:28:59;6.30;99.90
11284;DHT22;5698;47.332;11.180;2022-09-27T03:31:26;6.30;99.90
11284;DHT22;5698;47.332;11.180;2022-09-27T03:33:53;6.20;99.90
11284;DHT22;5698;47.332;11.180;2022-09-27T03:36:20;6.30;99.90
11284;DHT22;5698;47.332;11.180;2022-09-27T03:38:49;6.30;99.90
11284;DHT22;5698;47.332;11.180;2022-09-27T03:41:16;6.30;99.90
11284;DHT22;5698;47.332;11.180;2022-09-27T03:43:43;6.30;99.90
11284;DHT22;5698;47.332;11.180;2022-09-27T03:46:10;6.30;99.90
11284;DHT22;5698;47.332;11.180;2022-09-27T03:48:37;6.20;99.90
11284;DHT22;5698;47.332;11.180;2022-09-27T03:51:06;6.20;99.90
11284;DHT22;5698;47.332;11.180;2022-09-27T03:53:34;6.20;99.90
11284;DHT22;5698;47.332;11.180;2022-09-27T03:56:03;6.10;99.90
11284;DHT22;5698;47.332;11.180;2022-09-27T03:58:30;6.10;99.90
11284;DHT22;5698;47.332;11.180;2022-09-27T04:00:57;6.00;99.90
11284;DHT22;5698;47.332;11.180;2022-09-27T04:03:24;5.80;99.90
11284;DHT22;5698;47.332;11.180;2022-09-27T04:05:51;5.80;99.90
11284;DHT22;5698;47.332;11.180;2022-09-27T04:08:19;5.70;99.90
11284;DHT22;5698;47.332;11.180;2022-09-27T04:10:46;5.70;99.90
11284;DHT22;5698;47.332;11.180;2022-09-27T04:13:15;5.70;99.90
11284;DHT22;5698;47.332;11.180;2022-09-27T04:15:42;5.80;99.90
11284;DHT22;5698;47.332;11.180;2022-09-27T04:18:10;5.80;99.90
11284;DHT22;5698;47.332;11.180;2022-09-27T04:20:37;5.80;99.90
11284;DHT22;5698;47.332;11.180;2022-09-27T04:23:04;5.80;99.90
11284;DHT22;5698;47.332;11.180;2022-09-27T04:25:31;5.90;99.90
11284;DHT22;5698;47.332;11.180;2022-09-27T04:27:58;5.80;99.90
11284;DHT22;5698;47.332;11.180;2022-09-27T04:30:28;5.80;99.90
11284;DHT22;5698;47.332;11.180;2022-09-27T04:32:55;5.70;99.90
11284;DHT22;5698;47.332;11.180;2022-09-27T04:35:22;5.70;99.90
11284;DHT22;5698;47.332;11.180;2022-09-27T04:38:06;5.70;99.90
11284;DHT22;5698;47.332;11.180;2022-09-27T04:40:34;5.50;99.90
11284;DHT22;5698;47.332;11.180;2022-09-27T04:43:01;5.40;99.90
11284;DHT22;5698;47.332;11.180;2022-09-27T04:45:30;5.40;99.90
11284;DHT22;5698;47.332;11.180;2022-09-27T04:47:57;5.30;99.90
11284;DHT22;5698;47.332;11.180;2022-09-27T04:50:24;5.20;99.90
11284;DHT22;5698;47.332;11.180;2022-09-27T04:52:52;5.30;99.90
11284;DHT22;5698;47.332;11.180;2022-09-27T04:55:20;5.30;99.90
11284;DHT22;5698;47.332;11.180;2022-09-27T04:57:48;5.30;99.90
11284;DHT22;5698;47.332;11.180;2022-09-27T05:00:16;5.30;99.90
11284;DHT22;5698;47.332;11.180;2022-09-27T05:02:45;5.40;99.90
11284;DHT22;5698;47.332;11.180;2022-09-27T05:05:13;5.30;99.90
11284;DHT22;5698;47.332;11.180;2022-09-27T05:07:41;5.20;99.90
11284;DHT22;5698;47.332;11.180;2022-09-27T05:10:08;5.20;99.90
11284;DHT22;5698;47.332;11.180;2022-09-27T05:12:36;5.10;99.90
11284;DHT22;5698;47.332;11.180;2022-09-27T05:15:04;5.10;99.90
11284;DHT22;5698;47.332;11.180;2022-09-27T05:17:31;5.10;99.90
11284;DHT22;5698;47.332;11.180;2022-09-27T05:20:00;5.20;99.90
11284;DHT22;5698;47.332;11.180;2022-09-27T05:22:27;5.30;99.90
11284;DHT22;5698;47.332;11.180;2022-09-27T05:24:55;5.30;99.90
11284;DHT22;5698;47.332;11.180;2022-09-27T05:27:22;5.30;99.90
11284;DHT22;5698;47.332;11.180;2022-09-27T05:29:49;5.40;99.90
11284;DHT22;5698;47.332;11.180;2022-09-27T05:32:16;5.40;99.90
11284;DHT22;5698;47.332;11.180;2022-09-27T05:34:43;5.40;99.90
11284;DHT22;5698;47.332;11.180;2022-09-27T05:37:12;5.30;99.90
11284;DHT22;5698;47.332;11.180;2022-09-27T05:39:39;5.30;99.90
11284;DHT22;5698;47.332;11.180;2022-09-27T05:42:06;5.40;99.90
11284;DHT22;5698;47.332;11.180;2022-09-27T05:44:35;5.30;99.90
11284;DHT22;5698;47.332;11.180;2022-09-27T05:47:03;5.40;99.90
11284;DHT22;5698;47.332;11.180;2022-09-27T05:49:30;5.40;99.90
11284;DHT22;5698;47.332;11.180;2022-09-27T05:51:58;5.40;99.90
11284;DHT22;5698;47.332;11.180;2022-09-27T05:54:26;5.50;99.90
11284;DHT22;5698;47.332;11.180;2022-09-27T05:56:55;5.50;99.90
11284;DHT22;5698;47.332;11.180;2022-09-27T05:59:23;5.50;99.90
11284;DHT22;5698;47.332;11.180;2022-09-27T06:01:51;5.60;99.90
11284;DHT22;5698;47.332;11.180;2022-09-27T06:04:19;5.60;99.90
11284;DHT22;5698;47.332;11.180;2022-09-27T06:06:46;5.70;99.90
11284;DHT22;5698;47.332;11.180;2022-09-27T06:09:15;5.70;99.90
11284;DHT22;5698;47.332;11.180;2022-09-27T06:11:44;5.70;99.90
11284;DHT22;5698;47.332;11.180;2022-09-27T06:14:11;5.70;99.90
11284;DHT22;5698;47.332;11.180;2022-09-27T06:16:38;5.80;99.90
11284;DHT22;5698;47.332;11.180;2022-09-27T06:19:05;5.80;99.90
11284;DHT22;5698;47.332;11.180;2022-09-27T06:21:33;5.80;99.90
11284;DHT22;5698;47.332;11.180;2022-09-27T06:24:01;5.80;99.90
11284;DHT22;5698;47.332;11.180;2022-09-27T06:26:28;5.80;99.90
11284;DHT22;5698;47.332;11.180;2022-09-27T06:28:57;5.90;99.90
11284;DHT22;5698;47.332;11.180;2022-09-27T06:31:24;5.90;99.90
11284;DHT22;5698;47.332;11.180;2022-09-27T06:33:51;6.00;99.90
11284;DHT22;5698;47.332;11.180;2022-09-27T06:36:18;6.00;99.90
11284;DHT22;5698;47.332;11.180;2022-09-27T06:38:45;6.00;99.90
11284;DHT22;5698;47.332;11.180;2022-09-27T06:41:12;6.00;99.90
11284;DHT22;5698;47.332;11.180;2022-09-27T06:43:40;6.10;99.90
11284;DHT22;5698;47.332;11.180;2022-09-27T06:46:08;6.10;99.90
11284;DHT22;5698;47.332;11.180;2022-09-27T06:48:36;6.20;99.90
11284;DHT22;5698;47.332;11.180;2022-09-27T06:51:04;6.30;99.90
11284;DHT22;5698;47.332;11.180;2022-09-27T06:53:31;6.40;99.90
11284;DHT22;5698;47.332;11.180;2022-09-27T06:55:59;6.50;99.90
11284;DHT22;5698;47.332;11.180;2022-09-27T06:58:26;6.50;99.90
11284;DHT22;5698;47.332;11.180;2022-09-27T07:01:13;6.60;99.90
11284;DHT22;5698;47.332;11.180;2022-09-27T07:03:40;6.70;99.90
11284;DHT22;5698;47.332;11.180;2022-09-27T07:06:15;6.60;99.90
11284;DHT22;5698;47.332;11.180;2022-09-27T07:08:42;6.60;99.90
11284;DHT22;5698;47.332;11.180;2022-09-27T07:11:09;6.50;99.90
11284;DHT22;5698;47.332;11.180;2022-09-27T07:13:37;6.50;99.90
11284;DHT22;5698;47.332;11.180;2022-09-27T07:16:09;6.50;99.90
11284;DHT22;5698;47.332;11.180;2022-09-27T07:18:39;6.60;99.90
11284;DHT22;5698;47.332;11.180;2022-09-27T07:21:06;6.50;99.90
11284;DHT22;5698;47.332;11.180;2022-09-27T07:23:35;6.50;99.90
11284;DHT22;5698;47.332;11.180;2022-09-27T07:26:02;6.60;99.90
11284;DHT22;5698;47.332;11.180;2022-09-27T07:28:32;6.50;99.90
11284;DHT22;5698;47.332;11.180;2022-09-27T07:31:00;6.50;99.90
11284;DHT22;5698;47.332;11.180;2022-09-27T07:33:28;6.50;99.90
11284;DHT22;5698;47.332;11.180;2022-09-27T07:35:56;6.40;99.90
11284;DHT22;5698;47.332;11.180;2022-09-27T07:38:24;6.40;99.90
11284;DHT22;5698;47.332;11.180;2022-09-27T07:40:51;6.50;99.90
11284;DHT22;5698;47.332;11.180;2022-09-27T07:43:18;6.50;99.90
11284;DHT22;5698;47.332;11.180;2022-09-27T07:45:46;6.50;99.90
11284;DHT22;5698;47.332;11.180;2022-09-27T07:48:14;6.60;99.90
11284;DHT22;5698;47.332;11.180;2022-09-27T07:50:42;6.50;99.90
11284;DHT22;5698;47.332;11.180;2022-09-27T07:53:10;6.60;99.90
11284;DHT22;5698;47.332;11.180;2022-09-27T07:55:39;6.70;99.90
11284;DHT22;5698;47.332;11.180;2022-09-27T07:58:08;6.70;99.90
11284;DHT22;5698;47.332;11.180;2022-09-27T08:00:36;6.80;99.90
11284;DHT22;5698;47.332;11.180;2022-09-27T08:03:05;6.80;99.90
11284;DHT22;5698;47.332;11.180;2022-09-27T08:05:34;6.90;99.90
11284;DHT22;5698;47.332;11.180;2022-09-27T08:08:02;6.90;99.90
11284;DHT22;5698;47.332;11.180;2022-09-27T08:10:32;7.00;99.90
11284;DHT22;5698;47.332;11.180;2022-09-27T08:13:01;7.00;99.90
11284;DHT22;5698;47.332;11.180;2022-09-27T08:15:29;7.00;99.90
11284;DHT22;5698;47.332;11.180;2022-09-27T08:17:57;7.10;99.90
11284;DHT22;5698;47.332;11.180;2022-09-27T08:20:24;7.10;99.90
11284;DHT22;5698;47.332;11.180;2022-09-27T08:22:51;7.20;99.90
11284;DHT22;5698;47.332;11.180;2022-09-27T08:25:18;7.50;99.90
11284;DHT22;5698;47.332;11.180;2022-09-27T08:27:55;7.70;99.90
11284;DHT22;5698;47.332;11.180;2022-09-27T08:30:23;7.90;99.90
11284;DHT22;5698;47.332;11.180;2022-09-27T08:32:54;8.00;99.90
11284;DHT22;5698;47.332;11.180;2022-09-27T08:35:22;8.10;99.90
11284;DHT22;5698;47.332;11.180;2022-09-27T08:37:53;8.10;99.90
11284;DHT22;5698;47.332;11.180;2022-09-27T08:40:22;8.10;99.90
11284;DHT22;5698;47.332;11.180;2022-09-27T08:43:00;8.20;99.90
11284;DHT22;5698;47.332;11.180;2022-09-27T08:45:33;8.20;99.90
11284;DHT22;5698;47.332;11.180;2022-09-27T08:48:04;8.30;99.90
11284;DHT22;5698;47.332;11.180;2022-09-27T08:50:34;8.00;99.90
11284;DHT22;5698;47.332;11.180;2022-09-27T08:53:04;8.00;99.90
11284;DHT22;5698;47.332;11.180;2022-09-27T08:55:39;7.90;99.90
11284;DHT22;5698;47.332;11.180;2022-09-27T08:58:13;7.80;99.90
11284;DHT22;5698;47.332;11.180;2022-09-27T09:00:41;7.70;99.90
11284;DHT22;5698;47.332;11.180;2022-09-27T09:03:17;7.80;99.90
11284;DHT22;5698;47.332;11.180;2022-09-27T09:05:51;7.70;99.90
11284;DHT22;5698;47.332;11.180;2022-09-27T09:08:32;7.70;99.90
11284;DHT22;5698;47.332;11.180;2022-09-27T09:11:11;7.80;99.90
11284;DHT22;5698;47.332;11.180;2022-09-27T09:16:59;8.80;99.90
11284;DHT22;5698;47.332;11.180;2022-09-27T09:19:42;9.50;99.90
11284;DHT22;5698;47.332;11.180;2022-09-27T09:22:28;9.90;99.90
11284;DHT22;5698;47.332;11.180;2022-09-27T09:25:11;10.50;99.90
11284;DHT22;5698;47.332;11.180;2022-09-27T09:27:50;11.00;99.90
11284;DHT22;5698;47.332;11.180;2022-09-27T09:30:22;11.70;99.90
11284;DHT22;5698;47.332;11.180;2022-09-27T09:33:02;12.20;99.90
11284;DHT22;5698;47.332;11.180;2022-09-27T09:35:35;12.60;99.90
11284;DHT22;5698;47.332;11.180;2022-09-27T09:38:07;12.70;99.90
11284;DHT22;5698;47.332;11.180;2022-09-27T09:40:40;12.60;99.90
11284;DHT22;5698;47.332;11.180;2022-09-27T09:43:14;12.40;99.90
11284;DHT22;5698;47.332;11.180;2022-09-27T09:45:49;12.10;99.90
11284;DHT22;5698;47.332;11.180;2022-09-27T09:48:24;12.00;99.90
11284;DHT22;5698;47.332;11.180;2022-09-27T09:50:56;12.00;99.90
11284;DHT22;5698;47.332;11.180;2022-09-27T09:53:33;11.90;99.90
11284;DHT22;5698;47.332;11.180;2022-09-27T09:56:06;11.70;99.90
11284;DHT22;5698;47.332;11.180;2022-09-27T09:58:38;11.70;99.90
11284;DHT22;5698;47.332;11.180;2022-09-27T10:01:15;11.50;99.90
11284;DHT22;5698;47.332;11.180;2022-09-27T10:03:43;11.20;99.90
11284;DHT22;5698;47.332;11.180;2022-09-27T10:06:11;11.10;99.90
11284;DHT22;5698;47.332;11.180;2022-09-27T10:08:39;11.00;99.90
11284;DHT22;5698;47.332;11.180;2022-09-27T10:11:08;10.70;99.90
11284;DHT22;5698;47.332;11.180;2022-09-27T10:13:38;10.60;99.90
11284;DHT22;5698;47.332;11.180;2022-09-27T10:16:09;10.50;99.90
11284;DHT22;5698;47.332;11.180;2022-09-27T10:18:39;10.30;99.90
11284;DHT22;5698;47.332;11.180;2022-09-27T10:21:11;10.10;99.90
11284;DHT22;5698;47.332;11.180;2022-09-27T10:24:00;10.30;99.90
11284;DHT22;5698;47.332;11.180;2022-09-27T10:26:29;10.50;99.90
11284;DHT22;5698;47.332;11.180;2022-09-27T10:28:56;10.90;99.90
11284;DHT22;5698;47.332;11.180;2022-09-27T10:31:24;11.30;99.90
11284;DHT22;5698;47.332;11.180;2022-09-27T10:34:02;10.90;99.90
11284;DHT22;5698;47.332;11.180;2022-09-27T10:36:32;10.70;99.90
11284;DHT22;5698;47.332;11.180;2022-09-27T10:39:01;10.50;99.90
11284;DHT22;5698;47.332;11.180;2022-09-27T10:41:32;10.20;99.90
11284;DHT22;5698;47.332;11.180;2022-09-27T10:44:20;9.90;99.90
11284;DHT22;5698;47.332;11.180;2022-09-27T10:46:51;9.80;99.90
11284;DHT22;5698;47.332;11.180;2022-09-27T10:49:24;9.70;99.90
11284;DHT22;5698;47.332;11.180;2022-09-27T10:51:53;9.80;99.90
11284;DHT22;5698;47.332;11.180;2022-09-27T10:54:23;9.80;99.90
11284;DHT22;5698;47.332;11.180;2022-09-27T10:56:57;9.70;99.90
11284;DHT22;5698;47.332;11.180;2022-09-27T10:59:24;9.60;99.90
11284;DHT22;5698;47.332;11.180;2022-09-27T11:01:55;9.70;99.90
11284;DHT22;5698;47.332;11.180;2022-09-27T11:04:28;9.60;99.90
11284;DHT22;5698;47.332;11.180;2022-09-27T11:07:07;9.50;99.90
11284;DHT22;5698;47.332;11.180;2022-09-27T11:09:46;9.40;99.90
11284;DHT22;5698;47.332;11.180;2022-09-27T11:12:15;9.20;99.90
11284;DHT22;5698;47.332;11.180;2022-09-27T11:14:52;9.00;99.90
11284;DHT22;5698;47.332;11.180;2022-09-27T11:17:26;9.00;99.90
11284;DHT22;5698;47.332;11.180;2022-09-27T11:20:05;8.90;99.90
11284;DHT22;5698;47.332;11.180;2022-09-27T11:23:03;8.50;99.90
11284;DHT22;5698;47.332;11.180;2022-09-27T11:25:40;8.30;99.90
11284;DHT22;5698;47.332;11.180;2022-09-27T11:28:21;8.10;99.90
11284;DHT22;5698;47.332;11.180;2022-09-27T11:31:00;8.00;99.90
11284;DHT22;5698;47.332;11.180;2022-09-27T11:33:50;7.90;99.90
11284;DHT22;5698;47.332;11.180;2022-09-27T11:36:33;8.00;99.90
11284;DHT22;5698;47.332;11.180;2022-09-27T11:39:06;8.30;99.90
11284;DHT22;5698;47.332;11.180;2022-09-27T11:41:44;8.60;99.90
11284;DHT22;5698;47.332;11.180;2022-09-27T11:44:35;9.00;99.90
11284;DHT22;5698;47.332;11.180;2022-09-27T11:47:14;9.50;99.90
11284;DHT22;5698;47.332;11.180;2022-09-27T11:50:13;10.10;99.90
11284;DHT22;5698;47.332;11.180;2022-09-27T11:52:54;10.70;99.90
11284;DHT22;5698;47.332;11.180;2022-09-27T11:55:33;11.10;99.90
11284;DHT22;5698;47.332;11.180;2022-09-27T11:58:08;11.30;99.90
11284;DHT22;5698;47.332;11.180;2022-09-27T12:00:49;11.30;99.90
11284;DHT22;5698;47.332;11.180;2022-09-27T12:06:30;11.30;99.90
11284;DHT22;5698;47.332;11.180;2022-09-27T12:09:05;11.60;99.90
11284;DHT22;5698;47.332;11.180;2022-09-27T12:11:37;12.00;99.90
11284;DHT22;5698;47.332;11.180;2022-09-27T12:14:14;12.40;99.90
11284;DHT22;5698;47.332;11.180;2022-09-27T12:16:43;12.70;99.90
11284;DHT22;5698;47.332;11.180;2022-09-27T12:19:15;13.20;99.90
11284;DHT22;5698;47.332;11.180;2022-09-27T12:21:44;13.70;99.90
11284;DHT22;5698;47.332;11.180;2022-09-27T12:24:18;14.00;99.70
11284;DHT22;5698;47.332;11.180;2022-09-27T12:26:48;14.20;99.90
11284;DHT22;5698;47.332;11.180;2022-09-27T12:29:21;14.70;99.80
11284;DHT22;5698;47.332;11.180;2022-09-27T12:31:53;15.00;98.80
11284;DHT22;5698;47.332;11.180;2022-09-27T12:34:24;15.50;96.70
11284;DHT22;5698;47.332;11.180;2022-09-27T12:36:58;15.70;95.60
11284;DHT22;5698;47.332;11.180;2022-09-27T12:39:36;15.90;95.50
11284;DHT22;5698;47.332;11.180;2022-09-27T12:42:13;15.60;91.50
11284;DHT22;5698;47.332;11.180;2022-09-27T12:44:40;15.50;95.50
11284;DHT22;5698;47.332;11.180;2022-09-27T12:47:13;15.80;94.50
11284;DHT22;5698;47.332;11.180;2022-09-27T12:49:47;15.90;95.10
11284;DHT22;5698;47.332;11.180;2022-09-27T12:52:21;16.00;95.40
11284;DHT22;5698;47.332;11.180;2022-09-27T12:55:16;15.90;92.50
11284;DHT22;5698;47.332;11.180;2022-09-27T12:58:03;15.80;93.20
11284;DHT22;5698;47.332;11.180;2022-09-27T13:00:36;15.20;92.90
11284;DHT22;5698;47.332;11.180;2022-09-27T13:03:23;14.30;97.20
11284;DHT22;5698;47.332;11.180;2022-09-27T13:06:15;13.30;96.30
11284;DHT22;5698;47.332;11.180;2022-09-27T13:12:00;13.50;97.10
11284;DHT22;5698;47.332;11.180;2022-09-27T13:14:31;13.80;97.50
11284;DHT22;5698;47.332;11.180;2022-09-27T13:16:59;13.80;96.00
11284;DHT22;5698;47.332;11.180;2022-09-27T13:19:41;13.80;96.00
11284;DHT22;5698;47.332;11.180;2022-09-27T13:24:52;13.50;98.00
11284;DHT22;5698;47.332;11.180;2022-09-27T13:27:37;13.30;98.00
11284;DHT22;5698;47.332;11.180;2022-09-27T13:33:29;12.70;97.10
11284;DHT22;5698;47.332;11.180;2022-09-27T13:36:26;12.60;98.50
11284;DHT22;5698;47.332;11.180;2022-09-27T13:39:16;12.40;98.60
11284;DHT22;5698;47.332;11.180;2022-09-27T13:42:20;12.30;98.00
11284;DHT22;5698;47.332;11.180;2022-09-27T13:47:45;12.00;98.90
11284;DHT22;5698;47.332;11.180;2022-09-27T13:50:20;11.90;99.60
11284;DHT22;5698;47.332;11.180;2022-09-27T13:52:58;11.90;99.90
11284;DHT22;5698;47.332;11.180;2022-09-27T13:55:40;11.80;99.90
11284;DHT22;5698;47.332;11.180;2022-09-27T14:01:19;11.50;99.70
11284;DHT22;5698;47.332;11.180;2022-09-27T14:03:50;11.30;99.90
11284;DHT22;5698;47.332;11.180;2022-09-27T14:06:21;11.10;99.90
11284;DHT22;5698;47.332;11.180;2022-09-27T14:08:52;10.90;99.90
11284;DHT22;5698;47.332;11.180;2022-09-27T14:11:23;10.20;99.90
11284;DHT22;5698;47.332;11.180;2022-09-27T14:13:51;9.80;99.90
11284;DHT22;5698;47.332;11.180;2022-09-27T14:16:20;9.70;99.90
11284;DHT22;5698;47.332;11.180;2022-09-27T14:18:50;9.70;99.90
11284;DHT22;5698;47.332;11.180;2022-09-27T14:21:28;9.60;99.90
11284;DHT22;5698;47.332;11.180;2022-09-27T14:24:18;9.50;99.90
11284;DHT22;5698;47.332;11.180;2022-09-27T14:26:45;9.50;99.90
11284;DHT22;5698;47.332;11.180;2022-09-27T14:29:15;9.40;99.90
11284;DHT22;5698;47.332;11.180;2022-09-27T14:31:44;9.40;99.90
11284;DHT22;5698;47.332;11.180;2022-09-27T14:34:12;9.50;99.90
11284;DHT22;5698;47.332;11.180;2022-09-27T14:36:42;9.60;99.90
11284;DHT22;5698;47.332;11.180;2022-09-27T14:39:35;9.40;99.90
11284;DHT22;5698;47.332;11.180;2022-09-27T14:42:15;9.10;99.90
11284;DHT22;5698;47.332;11.180;2022-09-27T14:44:43;9.10;99.90
11284;DHT22;5698;47.332;11.180;2022-09-27T14:47:17;9.00;99.90
11284;DHT22;5698;47.332;11.180;2022-09-27T14:49:47;9.00;99.90
11284;DHT22;5698;47.332;11.180;2022-09-27T14:52:19;9.00;99.90
11284;DHT22;5698;47.332;11.180;2022-09-27T14:54:59;9.00;99.90
11284;DHT22;5698;47.332;11.180;2022-09-27T14:57:29;8.80;99.90
11284;DHT22;5698;47.332;11.180;2022-09-27T14:59:59;8.70;99.90
11284;DHT22;5698;47.332;11.180;2022-09-27T15:02:31;8.60;99.90
11284;DHT22;5698;47.332;11.180;2022-09-27T15:04:59;8.60;99.90
11284;DHT22;5698;47.332;11.180;2022-09-27T15:07:26;8.50;99.90
11284;DHT22;5698;47.332;11.180;2022-09-27T15:09:53;8.40;99.90
11284;DHT22;5698;47.332;11.180;2022-09-27T15:12:23;8.40;99.90
11284;DHT22;5698;47.332;11.180;2022-09-27T15:14:53;8.20;99.90
11284;DHT22;5698;47.332;11.180;2022-09-27T15:17:23;8.10;99.90
11284;DHT22;5698;47.332;11.180;2022-09-27T15:19:59;8.00;99.90
11284;DHT22;5698;47.332;11.180;2022-09-27T15:22:35;8.00;99.90
11284;DHT22;5698;47.332;11.180;2022-09-27T15:25:16;8.00;99.90
11284;DHT22;5698;47.332;11.180;2022-09-27T15:27:49;8.10;99.90
11284;DHT22;5698;47.332;11.180;2022-09-27T15:30:18;7.90;99.90
11284;DHT22;5698;47.332;11.180;2022-09-27T15:32:50;8.00;99.90
11284;DHT22;5698;47.332;11.180;2022-09-27T15:35:24;8.00;99.90
11284;DHT22;5698;47.332;11.180;2022-09-27T15:38:01;7.90;99.90
11284;DHT22;5698;47.332;11.180;2022-09-27T15:41:00;7.50;99.90
11284;DHT22;5698;47.332;11.180;2022-09-27T15:43:30;7.40;99.90
11284;DHT22;5698;47.332;11.180;2022-09-27T15:45:59;7.40;99.90
11284;DHT22;5698;47.332;11.180;2022-09-27T15:48:28;7.60;99.90
11284;DHT22;5698;47.332;11.180;2022-09-27T15:50:58;7.40;99.90
11284;DHT22;5698;47.332;11.180;2022-09-27T15:53:42;7.30;99.90
11284;DHT22;5698;47.332;11.180;2022-09-27T15:56:13;7.40;99.90
11284;DHT22;5698;47.332;11.180;2022-09-27T15:58:41;7.50;99.90
11284;DHT22;5698;47.332;11.180;2022-09-27T16:01:18;7.60;99.90
11284;DHT22;5698;47.332;11.180;2022-09-27T16:03:46;7.50;99.90
11284;DHT22;5698;47.332;11.180;2022-09-27T16:06:15;7.50;99.90
11284;DHT22;5698;47.332;11.180;2022-09-27T16:08:43;7.50;99.90
11284;DHT22;5698;47.332;11.180;2022-09-27T16:11:13;7.40;99.90
11284;DHT22;5698;47.332;11.180;2022-09-27T16:13:42;7.20;99.90
11284;DHT22;5698;47.332;11.180;2022-09-27T16:16:14;7.00;99.90
11284;DHT22;5698;47.332;11.180;2022-09-27T16:18:42;6.70;99.90
11284;DHT22;5698;47.332;11.180;2022-09-27T16:21:10;6.60;99.90
11284;DHT22;5698;47.332;11.180;2022-09-27T16:23:38;6.50;99.90
11284;DHT22;5698;47.332;11.180;2022-09-27T16:26:06;6.50;99.90
11284;DHT22;5698;47.332;11.180;2022-09-27T16:28:33;6.30;99.90
11284;DHT22;5698;47.332;11.180;2022-09-27T16:31:02;6.20;99.90
11284;DHT22;5698;47.332;11.180;2022-09-27T16:33:30;6.30;99.90
11284;DHT22;5698;47.332;11.180;2022-09-27T16:35:57;6.30;99.90